Time;durP1;ratioP1;P1;durP2;ratioP2;P2;SDS_P1;SDS_P2;PMS_P1;PMS_P2;Temp;Humidity;BMP_temperature;BMP_pressure;BME280_temperature;BME280_humidity;BME280_pressure;Samples;Min_cycle;Max_cycle;Signal;HPM_P1;HPM_P2
2021/10/16 14:19:04;;;;;;;10.52;4.13;;;;;;;14.35;46.67;102252.31;5033212;28;98150;-71
2021/10/16 14:21:30;;;;;;;10.70;3.90;;;;;;;14.23;46.19;102247.53;5014185;28;20046;-72
2021/10/16 14:23:55;;;;;;;6.93;3.47;;;;;;;14.04;45.62;102252.94;5013801;28;20018;-72
2021/10/16 14:26:20;;;;;;;10.13;3.00;;;;;;;13.90;47.04;102257.72;4997121;28;20038;-72
2021/10/16 14:28:46;;;;;;;8.70;3.40;;;;;;;13.77;47.34;102265.16;5013955;28;20018;-72
2021/10/16 14:31:11;;;;;;;8.87;3.33;;;;;;;13.66;49.37;102264.75;5013059;28;20026;-72
2021/10/16 14:33:37;;;;;;;8.03;3.00;;;;;;;13.68;49.01;102259.53;5014045;28;20046;-72
2021/10/16 14:36:03;;;;;;;7.73;3.27;;;;;;;13.80;49.03;102244.22;5014225;28;20026;-72
2021/10/16 14:38:29;;;;;;;8.43;2.93;;;;;;;13.96;47.99;102234.25;5013830;28;20101;-73
2021/10/16 14:40:54;;;;;;;11.70;3.27;;;;;;;13.99;45.93;102232.63;5014261;28;20030;-72
2021/10/16 14:43:20;;;;;;;8.70;3.20;;;;;;;13.95;46.35;102220.16;5013408;28;20026;-72
2021/10/16 14:45:45;;;;;;;12.30;3.40;;;;;;;13.90;46.50;102226.13;5013235;28;20305;-72
2021/10/16 14:48:11;;;;;;;7.53;3.10;;;;;;;13.90;47.25;102228.75;5013327;28;20030;-72
2021/10/16 14:50:36;;;;;;;9.57;3.60;;;;;;;13.88;46.73;102224.31;4999656;28;20052;-72
2021/10/16 14:53:02;;;;;;;6.50;2.53;;;;;;;13.86;47.12;102233.00;5002554;28;20030;-72
2021/10/16 14:55:29;;;;;;;12.33;3.50;;;;;;;13.85;46.46;102237.41;4994302;28;20023;-72
2021/10/16 14:57:55;;;;;;;8.97;3.07;;;;;;;13.90;46.99;102249.81;4993941;28;20142;-72
2021/10/16 15:00:20;;;;;;;12.07;3.83;;;;;;;13.87;46.66;102251.50;4992893;28;20317;-72
2021/10/16 15:02:46;;;;;;;11.73;4.17;;;;;;;13.80;46.50;102244.22;4992850;28;20043;-72
2021/10/16 15:05:58;;;;;;;6.18;2.72;;;;;;;13.77;46.82;102240.56;5078925;27;20389;-70
2021/10/16 15:08:24;;;;;;;10.67;4.77;;;;;;;13.71;46.43;102244.75;5078403;27;20041;-69
2021/10/16 15:10:51;;;;;;;8.10;3.27;;;;;;;13.68;46.70;102241.09;5073279;28;20371;-73
2021/10/16 15:13:17;;;;;;;14.77;5.60;;;;;;;13.63;46.29;102230.41;5071792;28;20115;-72
2021/10/16 15:15:42;;;;;;;10.00;4.03;;;;;;;13.56;46.54;102220.47;5072545;28;20284;-65
2021/10/16 15:18:08;;;;;;;6.13;2.93;;;;;;;13.63;47.74;102211.97;5040903;28;20043;-72
2021/10/16 15:20:33;;;;;;;7.93;3.40;;;;;;;13.36;47.96;102214.41;5070420;28;20136;-71
2021/10/16 15:22:58;;;;;;;12.77;3.80;;;;;;;12.99;51.40;102217.41;5055138;28;20395;-71
2021/10/16 15:25:28;;;;;;;6.07;3.13;;;;;;;12.64;52.00;102211.59;5073117;28;20041;-71
2021/10/16 15:27:55;;;;;;;12.57;4.23;;;;;;;12.36;52.93;102219.22;5072301;28;20024;-71
2021/10/16 15:30:20;;;;;;;10.90;3.30;;;;;;;12.21;55.28;102224.69;5053023;28;20036;-71
2021/10/16 15:32:45;;;;;;;11.70;3.10;;;;;;;12.12;53.21;102215.50;5071589;28;20017;-71
2021/10/16 15:35:11;;;;;;;9.03;2.93;;;;;;;12.05;53.43;102217.88;5071116;28;20021;-69
2021/10/16 15:37:36;;;;;;;11.07;3.47;;;;;;;11.98;54.27;102223.66;5071818;28;20032;-69
2021/10/16 15:45:12;;;;;;;9.27;3.10;;;;;;;11.86;55.49;102228.31;5711585;23;20317;-82
2021/10/16 15:47:38;;;;;;;10.53;3.93;;;;;;;11.79;55.27;102229.78;5013059;28;20080;-79
2021/10/16 15:50:04;;;;;;;10.43;4.27;;;;;;;11.73;55.89;102230.41;5013557;28;20111;-79
2021/10/16 15:52:30;;;;;;;9.47;3.67;;;;;;;11.67;56.98;102223.16;5014118;28;20034;-79
2021/10/16 15:54:55;;;;;;;13.20;4.00;;;;;;;11.63;57.54;102234.34;5013592;28;20390;-80
2021/10/16 15:57:20;;;;;;;10.60;3.27;;;;;;;11.58;58.43;102220.09;5012534;28;20030;-79
2021/10/16 15:59:46;;;;;;;8.50;2.97;;;;;;;11.54;58.22;102231.28;5012759;28;20311;-80
2021/10/16 16:02:16;;;;;;;9.83;3.53;;;;;;;11.50;57.80;102230.25;5014175;28;20025;-79
2021/10/16 16:04:42;;;;;;;8.13;3.03;;;;;;;11.47;57.21;102226.56;5013640;28;20030;-79
2021/10/16 16:07:07;;;;;;;5.70;2.50;;;;;;;11.48;54.99;102236.25;5013548;28;20032;-79
2021/10/16 16:09:33;;;;;;;6.17;2.53;;;;;;;11.51;55.53;102231.13;5012569;28;20033;-76
2021/10/16 16:11:58;;;;;;;11.27;3.03;;;;;;;11.49;55.28;102235.41;5011850;28;20388;-75
2021/10/16 16:14:24;;;;;;;7.10;2.40;;;;;;;11.46;55.59;102232.66;5014004;28;20146;-81
2021/10/16 16:16:52;;;;;;;8.87;3.30;;;;;;;11.43;56.32;102230.78;4996074;28;20022;-79
2021/10/16 16:19:18;;;;;;;13.57;3.60;;;;;;;11.38;56.67;102232.28;5019547;28;20029;-79
2021/10/16 16:21:45;;;;;;;7.97;3.17;;;;;;;11.33;57.47;102234.69;5019893;28;20038;-80
2021/10/16 16:24:10;;;;;;;6.77;3.10;;;;;;;11.29;57.82;102234.47;5019824;28;20030;-79
2021/10/16 16:26:36;;;;;;;7.70;2.97;;;;;;;11.25;58.72;102236.03;5036906;28;20075;-79
2021/10/16 16:29:01;;;;;;;11.47;3.60;;;;;;;11.22;58.72;102231.53;5020363;28;20026;-81
2021/10/16 16:31:27;;;;;;;9.93;4.03;;;;;;;11.17;59.49;102227.81;5020492;28;20326;-80
2021/10/16 16:33:52;;;;;;;8.37;4.00;;;;;;;11.13;59.52;102226.78;5019897;28;20053;-83
2021/10/16 16:36:18;;;;;;;10.37;3.20;;;;;;;11.11;58.65;102224.91;5020585;28;20056;-82
2021/10/16 16:38:43;;;;;;;7.43;3.10;;;;;;;11.09;59.07;102223.94;5004231;28;20445;-79
2021/10/16 16:41:09;;;;;;;8.27;2.60;;;;;;;11.07;57.42;102222.94;5021194;28;20048;-80
2021/10/16 16:43:34;;;;;;;9.13;3.00;;;;;;;11.04;58.12;102222.81;5019577;28;20018;-79
2021/10/16 16:46:00;;;;;;;9.47;3.73;;;;;;;11.00;59.63;102227.00;5019845;28;20026;-79
2021/10/16 16:48:26;;;;;;;11.90;3.53;;;;;;;10.98;58.44;102233.88;5020003;28;20036;-80
2021/10/16 16:50:52;;;;;;;7.73;3.07;;;;;;;10.98;59.99;102239.13;5020387;28;20049;-80
2021/10/16 16:53:21;;;;;;;6.67;3.50;;;;;;;10.94;60.93;102232.84;5020894;28;20113;-80
2021/10/16 16:55:46;;;;;;;8.13;3.43;;;;;;;10.91;60.35;102229.16;5021050;28;20026;-79
2021/10/16 16:58:11;;;;;;;12.60;6.27;;;;;;;10.86;60.93;102229.81;5019955;28;20022;-80
2021/10/16 17:00:37;;;;;;;18.43;5.03;;;;;;;10.82;60.60;102226.97;5020742;28;20319;-80
2021/10/16 17:03:02;;;;;;;10.23;3.93;;;;;;;10.76;60.96;102229.31;5019731;28;20054;-81
2021/10/16 17:05:27;;;;;;;11.50;3.90;;;;;;;10.68;61.76;102219.34;5020517;28;20057;-79
2021/10/16 17:07:53;;;;;;;9.70;3.97;;;;;;;10.63;62.02;102225.19;5019473;28;20052;-80
2021/10/16 17:10:18;;;;;;;11.33;4.60;;;;;;;10.57;62.17;102228.38;5020439;28;20025;-80
2021/10/16 17:12:44;;;;;;;9.23;3.73;;;;;;;10.50;61.64;102231.50;5018729;28;20291;-81
2021/10/16 17:15:09;;;;;;;12.87;4.17;;;;;;;10.42;62.17;102234.63;5020000;28;20022;-80
2021/10/16 17:17:35;;;;;;;14.30;3.73;;;;;;;10.35;62.76;102235.13;5019869;28;20022;-82
2021/10/16 17:20:00;;;;;;;9.80;4.03;;;;;;;10.28;63.56;102233.00;5019435;28;20022;-79
2021/10/16 17:22:26;;;;;;;8.47;3.73;;;;;;;10.21;63.85;102244.84;5019537;28;20087;-80
2021/10/16 17:24:51;;;;;;;15.00;4.50;;;;;;;10.14;64.25;102243.66;5020147;28;20053;-79
2021/10/16 17:27:17;;;;;;;10.17;4.00;;;;;;;10.08;64.79;102226.72;5019126;28;20025;-79
2021/10/16 17:29:43;;;;;;;12.57;4.47;;;;;;;10.00;64.87;102228.94;5022326;28;20049;-80
2021/10/16 17:32:09;;;;;;;12.10;4.10;;;;;;;9.93;66.07;102234.66;5024135;28;20052;-80
2021/10/16 17:34:34;;;;;;;8.50;4.10;;;;;;;9.86;65.53;102238.66;5019809;28;20372;-80
2021/10/16 17:36:59;;;;;;;9.57;4.07;;;;;;;9.79;66.00;102241.75;5019748;28;20076;-81
2021/10/16 17:39:25;;;;;;;12.60;3.80;;;;;;;9.70;65.82;102236.91;5018915;28;20035;-80
2021/10/16 17:41:50;;;;;;;8.80;4.20;;;;;;;9.64;67.24;102240.13;5019680;28;20030;-80
2021/10/16 17:44:16;;;;;;;12.83;4.00;;;;;;;9.55;67.90;102243.16;5019503;28;20311;-80
2021/10/16 17:46:41;;;;;;;10.17;4.30;;;;;;;9.47;68.25;102231.38;5019602;28;20036;-80
2021/10/16 17:49:07;;;;;;;6.50;3.10;;;;;;;9.35;67.85;102235.06;5018415;28;20049;-81
2021/10/16 17:51:32;;;;;;;9.20;3.60;;;;;;;9.29;68.64;102237.34;5019241;28;20022;-81
2021/10/16 17:53:58;;;;;;;7.37;3.10;;;;;;;9.21;68.79;102239.53;5019796;28;20025;-81
2021/10/16 17:56:23;;;;;;;14.03;3.63;;;;;;;9.16;69.30;102235.75;5018056;28;20032;-80
2021/10/16 17:58:49;;;;;;;11.73;3.60;;;;;;;9.10;69.21;102235.44;5018914;28;20037;-80
2021/10/16 18:01:14;;;;;;;11.57;3.73;;;;;;;9.05;69.22;102229.91;5001418;28;20387;-79
2021/10/16 18:03:39;;;;;;;11.30;3.80;;;;;;;9.00;69.86;102230.47;5001896;28;20028;-80
2021/10/16 18:06:05;;;;;;;9.57;3.63;;;;;;;8.95;69.47;102224.09;5019116;28;20018;-80
2021/10/16 18:08:30;;;;;;;8.80;3.80;;;;;;;8.88;69.92;102228.97;5017986;28;20269;-81
2021/10/16 18:10:56;;;;;;;12.63;4.13;;;;;;;8.80;71.17;102228.50;5018728;28;20025;-81
2021/10/16 18:13:21;;;;;;;11.50;4.00;;;;;;;8.75;71.57;102224.75;5019044;28;20032;-81
2021/10/16 18:15:47;;;;;;;10.70;3.93;;;;;;;8.68;71.92;102225.22;5019118;28;20315;-81
2021/10/16 18:18:12;;;;;;;6.40;4.03;;;;;;;8.60;70.86;102229.09;5018007;28;20034;-79
2021/10/16 18:20:37;;;;;;;8.20;3.90;;;;;;;8.56;71.51;102229.69;5017955;28;20021;-80
2021/10/16 18:23:04;;;;;;;8.67;4.50;;;;;;;8.51;71.75;102224.19;5018504;28;20025;-79
2021/10/16 18:25:29;;;;;;;13.70;4.50;;;;;;;8.47;72.35;102223.09;5018377;28;20026;-80
2021/10/16 18:27:54;;;;;;;10.63;4.53;;;;;;;8.43;71.79;102231.56;5018026;28;20071;-79
2021/10/16 18:30:20;;;;;;;10.73;4.47;;;;;;;8.39;72.79;102226.97;4998314;28;20413;-80
2021/10/16 18:32:45;;;;;;;8.70;4.60;;;;;;;8.34;72.48;102229.28;4999918;28;20035;-79
2021/10/16 18:35:11;;;;;;;8.37;4.67;;;;;;;8.31;72.71;102229.13;4998198;28;20101;-81
2021/10/16 18:37:36;;;;;;;8.07;4.40;;;;;;;8.27;72.67;102231.47;4998857;28;20030;-80
2021/10/16 18:40:03;;;;;;;7.43;4.57;;;;;;;8.21;73.06;102238.09;4997569;28;20026;-79
2021/10/16 18:42:28;;;;;;;9.93;4.73;;;;;;;8.18;73.51;102239.63;5020828;28;20021;-80
2021/10/16 18:44:54;;;;;;;7.13;4.00;;;;;;;8.13;73.06;102239.34;5019337;28;20392;-81
2021/10/16 18:47:20;;;;;;;11.83;5.17;;;;;;;8.11;73.02;102244.47;5018289;28;20072;-81
2021/10/16 18:49:46;;;;;;;11.93;4.33;;;;;;;8.11;73.03;102239.25;5018703;28;20017;-81
2021/10/16 18:52:12;;;;;;;9.47;4.93;;;;;;;8.11;73.00;102230.53;5001003;28;20396;-80
2021/10/16 18:54:37;;;;;;;10.33;4.30;;;;;;;8.11;73.49;102243.56;5017710;28;20033;-81
2021/10/16 18:57:03;;;;;;;10.90;4.80;;;;;;;8.11;73.76;102243.56;5000992;28;20041;-80
2021/10/16 18:59:28;;;;;;;7.63;4.30;;;;;;;8.11;73.65;102240.97;5017816;28;20041;-80
2021/10/16 19:01:54;;;;;;;17.33;5.47;;;;;;;8.11;73.56;102238.34;5017194;28;20034;-80
2021/10/16 19:04:19;;;;;;;17.63;5.30;;;;;;;8.08;73.25;102239.06;5017083;28;20349;-80
2021/10/16 19:06:44;;;;;;;8.93;4.80;;;;;;;8.09;73.77;102245.16;5017366;28;20022;-81
2021/10/16 19:09:10;;;;;;;11.37;5.00;;;;;;;8.06;73.47;102243.31;5017799;28;20063;-80
2021/10/16 19:11:35;;;;;;;7.90;4.83;;;;;;;8.03;74.27;102240.47;5018617;28;20103;-80
2021/10/16 19:14:01;;;;;;;7.23;5.23;;;;;;;8.03;74.15;102244.81;4999875;28;20112;-81
2021/10/16 19:16:26;;;;;;;10.43;5.33;;;;;;;8.01;74.10;102239.50;5017295;28;20037;-79
2021/10/16 19:18:52;;;;;;;9.93;4.77;;;;;;;7.98;74.27;102245.41;5018198;28;20018;-79
2021/10/16 19:21:17;;;;;;;9.23;5.23;;;;;;;7.97;74.04;102251.44;5018036;28;20025;-80
2021/10/16 19:23:43;;;;;;;12.93;4.80;;;;;;;7.96;74.69;102246.13;5017820;28;20041;-79
2021/10/16 19:26:09;;;;;;;11.93;5.67;;;;;;;7.94;74.45;102246.06;5016746;28;20058;-80
2021/10/16 19:28:35;;;;;;;13.00;5.90;;;;;;;7.94;75.09;102247.75;5000680;28;20065;-81
2021/10/16 19:31:00;;;;;;;10.90;5.37;;;;;;;7.91;75.54;102248.44;5017032;28;20029;-80
2021/10/16 19:33:26;;;;;;;9.27;4.83;;;;;;;7.92;75.10;102250.25;4996989;28;20452;-80
2021/10/16 19:35:51;;;;;;;7.57;4.97;;;;;;;7.90;74.55;102251.00;4998472;28;20439;-79
2021/10/16 19:38:16;;;;;;;17.70;6.67;;;;;;;7.89;75.47;102243.94;4997722;28;20328;-79
2021/10/16 19:40:42;;;;;;;10.87;4.63;;;;;;;7.87;75.20;102251.69;4982129;28;20029;-81
2021/10/16 19:43:13;;;;;;;10.23;5.20;;;;;;;7.84;74.86;102251.47;5003875;28;20081;-80
2021/10/16 19:45:38;;;;;;;8.00;5.20;;;;;;;7.85;75.19;102250.72;5023471;28;20030;-79
2021/10/16 19:48:04;;;;;;;8.27;5.30;;;;;;;7.85;74.98;102248.09;5022609;28;20454;-80
2021/10/16 19:50:29;;;;;;;7.37;5.43;;;;;;;7.87;74.41;102251.69;5018080;28;20029;-81
2021/10/16 19:52:55;;;;;;;10.23;5.37;;;;;;;7.90;74.31;102251.88;5021091;28;20022;-80
2021/10/16 19:55:20;;;;;;;10.80;5.50;;;;;;;7.96;74.44;102246.13;4987870;28;20033;-80
2021/10/16 19:57:46;;;;;;;13.93;6.33;;;;;;;8.00;74.15;102242.91;5020259;28;20426;-80
2021/10/16 20:00:14;;;;;;;10.90;6.17;;;;;;;8.01;73.47;102244.72;5020977;28;20080;-81
2021/10/16 20:02:40;;;;;;;13.63;6.43;;;;;;;8.07;74.03;102257.22;5021440;28;20030;-80
2021/10/16 20:05:06;;;;;;;9.73;4.87;;;;;;;8.09;73.60;102246.09;5020170;28;20034;-81
2021/10/16 20:07:31;;;;;;;10.67;6.23;;;;;;;8.12;73.75;102242.75;5021136;28;20185;-80
2021/10/16 20:09:56;;;;;;;9.43;5.83;;;;;;;8.15;73.76;102244.66;5020801;28;20028;-80
2021/10/16 20:12:22;;;;;;;10.53;6.17;;;;;;;8.17;73.33;102251.78;5021086;28;20022;-81
2021/10/16 20:14:48;;;;;;;14.37;7.20;;;;;;;8.21;73.20;102245.00;5019705;28;20022;-81
2021/10/16 20:17:14;;;;;;;10.90;6.23;;;;;;;8.24;73.47;102240.88;5019961;28;20413;-80
2021/10/16 20:19:40;;;;;;;10.40;6.70;;;;;;;8.27;73.42;102239.28;5020665;28;20030;-79
2021/10/16 20:22:05;;;;;;;11.20;6.30;;;;;;;8.29;73.27;102238.53;5019895;28;20022;-79
2021/10/16 20:24:36;;;;;;;9.23;5.73;;;;;;;8.30;73.02;102235.16;5020166;28;20032;-81
2021/10/16 20:27:04;;;;;;;10.37;6.30;;;;;;;8.32;73.03;102236.13;5020361;28;20072;-81
2021/10/16 20:29:34;;;;;;;16.20;6.90;;;;;;;8.34;72.79;102231.91;5002899;28;20030;-79
2021/10/16 20:32:02;;;;;;;13.87;7.07;;;;;;;8.35;73.27;102236.31;5020315;28;20046;-79
2021/10/16 20:34:31;;;;;;;17.60;7.17;;;;;;;8.36;72.38;102230.28;5004009;28;20396;-81
2021/10/16 20:36:59;;;;;;;12.13;6.57;;;;;;;8.39;72.92;102232.19;5021000;28;20018;-80
2021/10/16 20:39:25;;;;;;;10.53;7.10;;;;;;;8.41;72.77;102232.28;5019246;28;20407;-79
2021/10/16 20:41:50;;;;;;;11.90;6.33;;;;;;;8.45;72.56;102236.84;5020826;28;20402;-80
2021/10/16 20:44:15;;;;;;;15.07;6.97;;;;;;;8.45;72.66;102232.56;5019771;28;20026;-80
2021/10/16 20:46:41;;;;;;;12.93;8.17;;;;;;;8.47;71.97;102222.22;5020303;28;20026;-80
2021/10/16 20:49:07;;;;;;;14.13;7.67;;;;;;;8.47;72.01;102230.03;5019883;28;20029;-80
2021/10/16 20:51:33;;;;;;;12.47;7.90;;;;;;;8.48;71.90;102224.88;5019650;28;20041;-80
2021/10/16 20:53:58;;;;;;;15.03;7.80;;;;;;;8.51;71.88;102224.19;5019554;28;20069;-80
2021/10/16 20:56:23;;;;;;;11.90;7.67;;;;;;;8.51;72.26;102225.13;5019894;28;20033;-81
2021/10/16 20:58:49;;;;;;;14.67;8.43;;;;;;;8.52;72.26;102229.53;5019508;28;20038;-79
2021/10/16 21:01:14;;;;;;;11.70;7.27;;;;;;;8.51;72.46;102230.34;5019958;28;20029;-81
2021/10/16 21:03:39;;;;;;;13.93;7.23;;;;;;;8.52;72.38;102219.09;5017071;28;20037;-80
2021/10/16 21:06:05;;;;;;;14.57;7.43;;;;;;;8.52;72.39;102223.38;5018218;28;20048;-81
2021/10/16 21:08:30;;;;;;;11.93;7.40;;;;;;;8.54;71.94;102221.78;5004772;28;20022;-82
2021/10/16 21:10:56;;;;;;;14.07;7.47;;;;;;;8.54;72.21;102224.41;4986894;28;20376;-80
2021/10/16 21:13:21;;;;;;;10.30;6.73;;;;;;;8.54;72.48;102226.09;5002564;28;20026;-80
2021/10/16 21:15:46;;;;;;;10.47;6.60;;;;;;;8.54;72.23;102220.88;5019773;28;20339;-78
2021/10/16 21:18:12;;;;;;;11.67;6.43;;;;;;;8.52;71.97;102220.78;5017668;28;20109;-73
2021/10/16 21:20:37;;;;;;;12.20;6.37;;;;;;;8.52;72.43;102226.91;5017342;28;20048;-69
2021/10/16 21:23:03;;;;;;;14.07;8.17;;;;;;;8.51;72.13;102224.19;4999466;28;20069;-69
2021/10/16 21:25:28;;;;;;;10.50;7.23;;;;;;;8.53;72.65;102222.56;4963946;28;20102;-70
2021/10/16 21:27:54;;;;;;;10.33;6.50;;;;;;;8.53;72.31;102219.97;4946164;28;201269;-70
2021/10/16 21:30:19;;;;;;;9.80;6.83;;;;;;;8.52;72.57;102221.69;4961804;28;20074;-69
2021/10/16 21:32:47;;;;;;;8.13;5.60;;;;;;;8.52;72.63;102226.00;4966400;28;20057;-70
2021/10/16 21:35:12;;;;;;;14.77;6.37;;;;;;;8.54;72.56;102223.50;4963053;28;20427;-70
2021/10/16 21:37:37;;;;;;;13.30;7.13;;;;;;;8.54;72.35;102221.78;4978026;28;20031;-70
2021/10/16 21:40:03;;;;;;;13.23;7.70;;;;;;;8.51;72.24;102221.59;4959582;28;20043;-68
2021/10/16 21:42:29;;;;;;;10.03;6.47;;;;;;;8.51;72.42;102222.50;4976777;28;20035;-69
2021/10/16 21:44:54;;;;;;;15.37;7.13;;;;;;;8.52;73.04;102223.38;4962547;28;20043;-69
2021/10/16 21:47:20;;;;;;;13.10;6.90;;;;;;;8.52;72.86;102233.84;4976856;28;20393;-69
2021/10/16 21:49:51;;;;;;;12.30;7.27;;;;;;;8.51;72.71;102225.13;4960906;28;20313;-69
2021/10/16 21:52:17;;;;;;;10.73;6.33;;;;;;;8.50;72.80;102223.28;4946254;28;20308;-70
2021/10/16 21:54:42;;;;;;;12.17;6.77;;;;;;;8.50;72.68;102222.38;4974631;28;20118;-69
2021/10/16 21:57:08;;;;;;;15.73;6.93;;;;;;;8.51;72.71;102221.59;4976882;28;20019;-69
2021/10/16 21:59:33;;;;;;;12.37;6.80;;;;;;;8.52;72.73;102223.38;4968807;28;20057;-68
2021/10/16 22:01:59;;;;;;;11.60;6.83;;;;;;;8.52;72.90;102223.38;4977145;28;20022;-70
2021/10/16 22:04:25;;;;;;;10.00;6.50;;;;;;;8.52;72.13;102221.69;4952282;28;20373;-70
2021/10/16 22:06:52;;;;;;;9.00;6.40;;;;;;;8.54;72.63;102221.78;4960321;28;20041;-69
2021/10/16 22:09:17;;;;;;;9.17;5.27;;;;;;;8.55;72.83;102222.69;4940516;28;20050;-70
2021/10/16 22:11:43;;;;;;;12.80;6.87;;;;;;;8.56;72.70;102221.88;4960217;28;20320;-68
2021/10/16 22:14:08;;;;;;;11.50;6.67;;;;;;;8.56;72.68;102220.16;4975038;28;20026;-69
2021/10/16 22:16:34;;;;;;;8.43;5.80;;;;;;;8.55;73.28;102213.16;4957872;28;20353;-69
2021/10/16 22:18:59;;;;;;;13.33;6.60;;;;;;;8.55;72.15;102207.94;4977495;28;20026;-70
2021/10/16 22:21:24;;;;;;;11.30;6.03;;;;;;;8.57;72.25;102203.69;4976488;28;20027;-69
2021/10/16 22:23:50;;;;;;;8.47;6.10;;;;;;;8.58;72.98;102207.22;4976403;28;20038;-72
2021/10/16 22:26:15;;;;;;;12.37;5.80;;;;;;;8.58;72.35;102202.88;4944275;28;20401;-68
2021/10/16 22:28:41;;;;;;;10.27;6.00;;;;;;;8.60;72.30;102195.13;4973523;28;20031;-69
2021/10/16 22:31:06;;;;;;;16.00;7.27;;;;;;;8.62;72.56;102196.13;4977278;28;20380;-69
2021/10/16 22:33:32;;;;;;;9.27;5.73;;;;;;;8.61;71.92;102200.44;4976556;28;20389;-69
2021/10/16 22:35:57;;;;;;;9.60;6.10;;;;;;;8.61;72.46;102195.19;4976495;28;20074;-70
2021/10/16 22:38:23;;;;;;;8.20;5.40;;;;;;;8.62;72.07;102193.50;4946178;28;20046;-69
2021/10/16 22:40:48;;;;;;;10.93;5.47;;;;;;;8.63;72.77;102187.47;4942997;28;20042;-70
2021/10/16 22:43:14;;;;;;;10.73;6.13;;;;;;;8.63;72.32;102193.59;4976483;28;20340;-69
2021/10/16 22:45:40;;;;;;;9.63;5.70;;;;;;;8.65;72.10;102189.38;4977603;28;20093;-70
2021/10/16 22:48:05;;;;;;;14.67;6.20;;;;;;;8.65;71.99;102189.38;4956997;28;20420;-69
2021/10/16 22:50:31;;;;;;;12.37;5.23;;;;;;;8.68;71.32;102182.50;4968362;28;20030;-71
2021/10/16 22:52:56;;;;;;;11.57;5.97;;;;;;;8.68;72.29;102185.13;4977699;28;20038;-70
2021/10/16 22:55:23;;;;;;;11.17;5.93;;;;;;;8.68;72.09;102187.72;4976121;28;20031;-69
2021/10/16 22:57:50;;;;;;;9.47;5.63;;;;;;;8.67;72.21;102192.06;4976811;28;20039;-69
2021/10/16 23:00:20;;;;;;;9.40;5.50;;;;;;;8.67;72.30;102186.84;4969474;28;20484;-69
2021/10/16 23:02:46;;;;;;;10.70;5.17;;;;;;;8.65;72.37;102191.97;4972857;28;20057;-69
2021/10/16 23:05:13;;;;;;;8.20;5.00;;;;;;;8.65;72.04;102191.97;4957250;28;20028;-69
2021/10/16 23:07:40;;;;;;;11.70;6.00;;;;;;;8.68;72.72;102187.72;4966829;28;20126;-69
2021/10/16 23:10:06;;;;;;;12.10;5.63;;;;;;;8.68;72.79;102186.03;4971572;28;20054;-70
2021/10/16 23:12:32;;;;;;;13.07;5.90;;;;;;;8.68;72.87;102187.72;4960485;28;20146;-70
2021/10/16 23:14:57;;;;;;;9.37;5.67;;;;;;;8.66;73.05;102177.22;4969633;28;20070;-69
2021/10/16 23:17:22;;;;;;;10.93;5.13;;;;;;;8.67;72.85;102184.25;4956834;28;20360;-70
2021/10/16 23:19:48;;;;;;;13.80;6.33;;;;;;;8.65;73.02;102186.75;4957088;28;20440;-69
2021/10/16 23:22:13;;;;;;;9.00;5.00;;;;;;;8.65;73.21;102178.91;4957471;28;20039;-68
2021/10/16 23:24:38;;;;;;;12.97;5.77;;;;;;;8.66;73.16;102177.22;4958021;28;20074;-69
2021/10/16 23:27:04;;;;;;;15.50;7.83;;;;;;;8.66;73.03;102185.06;4959483;28;20074;-70
2021/10/16 23:29:29;;;;;;;14.93;7.03;;;;;;;8.66;72.82;102190.28;4961328;28;20023;-69
2021/10/16 23:31:58;;;;;;;13.37;7.40;;;;;;;8.66;73.48;102190.28;4945101;29;20086;-69
2021/10/16 23:34:23;;;;;;;14.27;6.30;;;;;;;8.64;73.13;102182.34;4961484;28;20033;-69
2021/10/16 23:36:48;;;;;;;11.07;6.37;;;;;;;8.66;73.40;102182.44;4964568;28;20118;-69
2021/10/16 23:39:14;;;;;;;10.10;5.97;;;;;;;8.67;72.25;102181.63;4944602;29;20117;-70
2021/10/16 23:41:39;;;;;;;12.90;7.40;;;;;;;8.67;72.83;102179.00;4944841;29;20075;-69
2021/10/16 23:44:04;;;;;;;14.23;5.37;;;;;;;8.70;72.85;102186.13;4959516;28;20098;-69
2021/10/16 23:46:30;;;;;;;12.67;5.87;;;;;;;8.70;73.22;102187.00;4960959;28;20027;-70
2021/10/16 23:48:55;;;;;;;11.60;6.47;;;;;;;8.72;73.11;102189.72;4961495;28;20266;-69
2021/10/16 23:51:20;;;;;;;12.00;6.17;;;;;;;8.71;73.35;102180.09;4960794;28;20031;-69
2021/10/16 23:53:46;;;;;;;10.60;6.10;;;;;;;8.71;72.90;102186.19;4961403;28;20039;-70
2021/10/16 23:56:11;;;;;;;11.53;5.53;;;;;;;8.70;72.97;102184.41;4972156;28;20038;-69
2021/10/16 23:58:36;;;;;;;9.57;5.17;;;;;;;8.71;73.30;102182.72;4979261;28;20041;-70
